THT102 NZAA-NTAA
Flight info
| Callsign | THT102 |
|---|---|
| Flight time | 4h 34m |
| Altitude | 39000 |
| Route | OLBEX G599 TEKOT DCT AROBA AROBA4K |
| Aircraft | B789/H-SDE1E2E3FGHIJ2J3J4J5M1RWXY/LB1D1 |
Departure
| Time | 2026-05-06 00:49 |
|---|---|
| Airport | Auckland International Airport (NZAA) |
Arrival
| Time | 2026-05-06 05:23 |
|---|---|
| Airport | Fa'a'ā International Airport (NTAA) |
| Time | Latitude | Longitude | Altitude | Speed | Heading |
|---|---|---|---|---|---|
| 2026-05-06 00:23 | -37.00862 | 174.78217 | 32 ft | 0 kts | 23° |
| 2026-05-06 00:33 | -37.00878 | 174.78208 | 31 ft | 3 kts | 23° |
| 2026-05-06 00:33 | -37.00895 | 174.78199 | 31 ft | 3 kts | 23° |
| 2026-05-06 00:34 | -37.00914 | 174.78193 | 31 ft | 3 kts | 346° |
| 2026-05-06 00:34 | -37.00932 | 174.78203 | 31 ft | 3 kts | 306° |
| 2026-05-06 00:34 | -37.00934 | 174.78206 | 32 ft | 0 kts | 304° |
| 2026-05-06 00:35 | -37.00940 | 174.78219 | 32 ft | 0 kts | 306° |
| 2026-05-06 00:36 | -37.00942 | 174.78221 | 32 ft | 0 kts | 304° |
| 2026-05-06 00:37 | -37.00940 | 174.78217 | 32 ft | 0 kts | 304° |
| 2026-05-06 00:37 | -37.00939 | 174.78216 | 32 ft | 0 kts | 304° |
| 2026-05-06 00:37 | -37.00939 | 174.78215 | 32 ft | 0 kts | 302° |
| 2026-05-06 00:37 | -37.00939 | 174.78213 | 32 ft | 1 kts | 295° |
| 2026-05-06 00:38 | -37.00940 | 174.78207 | 32 ft | 1 kts | 271° |
| 2026-05-06 00:38 | -37.00943 | 174.78202 | 32 ft | 1 kts | 246° |
| 2026-05-06 00:38 | -37.00948 | 174.78198 | 32 ft | 1 kts | 220° |
| 2026-05-06 00:38 | -37.00954 | 174.78199 | 32 ft | 1 kts | 191° |
| 2026-05-06 00:39 | -37.00959 | 174.78203 | 32 ft | 1 kts | 161° |
| 2026-05-06 00:39 | -37.00962 | 174.78207 | 32 ft | 0 kts | 139° |
| 2026-05-06 00:42 | -37.00964 | 174.78210 | 32 ft | 1 kts | 140° |
| 2026-05-06 00:43 | -37.00973 | 174.78219 | 32 ft | 2 kts | 141° |
| 2026-05-06 00:43 | -37.00990 | 174.78236 | 31 ft | 4 kts | 143° |
| 2026-05-06 00:43 | -37.01020 | 174.78261 | 32 ft | 6 kts | 152° |
| 2026-05-06 00:43 | -37.01047 | 174.78266 | 32 ft | 4 kts | 176° |
| 2026-05-06 00:44 | -37.01074 | 174.78262 | 31 ft | 5 kts | 191° |
| 2026-05-06 00:44 | -37.01100 | 174.78242 | 30 ft | 4 kts | 224° |
| 2026-05-06 00:44 | -37.01121 | 174.78207 | 29 ft | 6 kts | 239° |
| 2026-05-06 00:44 | -37.01141 | 174.78152 | 28 ft | 8 kts | 248° |
| 2026-05-06 00:45 | -37.01161 | 174.78083 | 29 ft | 9 kts | 250° |
| 2026-05-06 00:45 | -37.01183 | 174.78009 | 29 ft | 10 kts | 249° |
| 2026-05-06 00:45 | -37.01209 | 174.77920 | 28 ft | 12 kts | 251° |
| 2026-05-06 00:45 | -37.01237 | 174.77807 | 27 ft | 15 kts | 253° |
| 2026-05-06 00:46 | -37.01271 | 174.77686 | 28 ft | 14 kts | 248° |
| 2026-05-06 00:46 | -37.01303 | 174.77567 | 28 ft | 15 kts | 251° |
| 2026-05-06 00:46 | -37.01339 | 174.77433 | 27 ft | 17 kts | 251° |
| 2026-05-06 00:46 | -37.01378 | 174.77295 | 29 ft | 17 kts | 251° |
| 2026-05-06 00:47 | -37.01422 | 174.77152 | 28 ft | 18 kts | 239° |
| 2026-05-06 00:47 | -37.01535 | 174.77091 | 27 ft | 18 kts | 191° |
| 2026-05-06 00:47 | -37.01608 | 174.77135 | 27 ft | 6 kts | 99° |
| 2026-05-06 00:47 | -37.01602 | 174.77180 | 27 ft | 5 kts | 75° |
| 2026-05-06 00:48 | -37.01592 | 174.77223 | 28 ft | 1 kts | 72° |
| 2026-05-06 00:48 | -37.01560 | 174.77340 | 30 ft | 42 kts | 71° |
| 2026-05-06 00:48 | -37.01387 | 174.77963 | 29 ft | 110 kts | 71° |
| 2026-05-06 00:49 | -37.01068 | 174.79100 | 42 ft | 164 kts | 69° |
| 2026-05-06 00:49 | -37.00729 | 174.80538 | 659 ft | 175 kts | 75° |
| 2026-05-06 00:49 | -37.00365 | 174.81977 | 1771 ft | 167 kts | 66° |
| 2026-05-06 00:49 | -36.99927 | 174.83342 | 2557 ft | 181 kts | 66° |
| 2026-05-06 00:50 | -36.99474 | 174.84933 | 3029 ft | 207 kts | 69° |
| 2026-05-06 00:50 | -36.99027 | 174.86724 | 3607 ft | 227 kts | 69° |
| 2026-05-06 00:50 | -36.98504 | 174.88662 | 4259 ft | 242 kts | 67° |
| 2026-05-06 00:50 | -36.97854 | 174.90710 | 4868 ft | 267 kts | 65° |
| 2026-05-06 00:51 | -36.97225 | 174.92858 | 6399 ft | 249 kts | 69° |
| 2026-05-06 00:51 | -36.96733 | 174.94867 | 7818 ft | 243 kts | 69° |
| 2026-05-06 00:51 | -36.96138 | 174.96982 | 8202 ft | 273 kts | 67° |
| 2026-05-06 00:51 | -36.95479 | 174.99242 | 9156 ft | 277 kts | 68° |
| 2026-05-06 00:52 | -36.94835 | 175.01547 | 10093 ft | 286 kts | 68° |
| 2026-05-06 00:52 | -36.94158 | 175.03985 | 10597 ft | 309 kts | 68° |
| 2026-05-06 00:52 | -36.93409 | 175.06602 | 10901 ft | 336 kts | 68° |
| 2026-05-06 00:52 | -36.92593 | 175.09378 | 11299 ft | 357 kts | 68° |
| 2026-05-06 00:53 | -36.91735 | 175.12327 | 12337 ft | 358 kts | 68° |
| 2026-05-06 00:53 | -36.90893 | 175.15236 | 13208 ft | 364 kts | 68° |
| 2026-05-06 00:53 | -36.89985 | 175.18204 | 14098 ft | 368 kts | 65° |
| 2026-05-06 00:53 | -36.88951 | 175.21150 | 14885 ft | 373 kts | 64° |
| 2026-05-06 00:54 | -36.87908 | 175.24154 | 15639 ft | 379 kts | 65° |
| 2026-05-06 00:54 | -36.86902 | 175.27223 | 16374 ft | 384 kts | 66° |
| 2026-05-06 00:54 | -36.86026 | 175.29911 | 17023 ft | 389 kts | 65° |
| 2026-05-06 00:54 | -36.84945 | 175.33141 | 17772 ft | 394 kts | 65° |
| 2026-05-06 00:55 | -36.83873 | 175.36317 | 18500 ft | 400 kts | 65° |
| 2026-05-06 00:55 | -36.82795 | 175.39534 | 19118 ft | 405 kts | 65° |
| 2026-05-06 00:55 | -36.81705 | 175.42803 | 19714 ft | 410 kts | 66° |
| 2026-05-06 00:55 | -36.80597 | 175.46112 | 20324 ft | 415 kts | 66° |
| 2026-05-06 00:56 | -36.79474 | 175.49451 | 20907 ft | 421 kts | 66° |
| 2026-05-06 00:56 | -36.78331 | 175.52847 | 21480 ft | 426 kts | 67° |
| 2026-05-06 00:56 | -36.77179 | 175.56274 | 22044 ft | 431 kts | 67° |
| 2026-05-06 00:56 | -36.76014 | 175.59734 | 22598 ft | 436 kts | 67° |
| 2026-05-06 00:57 | -36.74830 | 175.63243 | 23134 ft | 441 kts | 68° |
| 2026-05-06 00:57 | -36.73631 | 175.66791 | 23664 ft | 446 kts | 68° |
| 2026-05-06 00:57 | -36.72421 | 175.70371 | 24152 ft | 451 kts | 68° |
| 2026-05-06 00:57 | -36.71194 | 175.73997 | 24618 ft | 454 kts | 68° |
| 2026-05-06 00:58 | -36.69962 | 175.77630 | 25076 ft | 457 kts | 68° |
| 2026-05-06 00:58 | -36.68721 | 175.81289 | 25523 ft | 461 kts | 68° |
| 2026-05-06 00:58 | -36.67480 | 175.84941 | 25944 ft | 464 kts | 68° |
| 2026-05-06 00:58 | -36.66220 | 175.88644 | 26401 ft | 466 kts | 68° |
| 2026-05-06 00:59 | -36.64949 | 175.92375 | 26823 ft | 470 kts | 68° |
| 2026-05-06 00:59 | -36.63669 | 175.96128 | 27246 ft | 473 kts | 68° |
| 2026-05-06 00:59 | -36.62381 | 175.99901 | 27665 ft | 476 kts | 68° |
| 2026-05-06 00:59 | -36.61079 | 176.03709 | 28066 ft | 479 kts | 68° |
| 2026-05-06 01:00 | -36.59768 | 176.07538 | 28468 ft | 482 kts | 68° |
| 2026-05-06 01:00 | -36.58451 | 176.11380 | 28864 ft | 485 kts | 68° |
| 2026-05-06 01:00 | -36.57120 | 176.15259 | 29259 ft | 488 kts | 68° |
| 2026-05-06 01:00 | -36.55780 | 176.19158 | 29659 ft | 491 kts | 68° |
| 2026-05-06 01:01 | -36.54434 | 176.23071 | 30032 ft | 494 kts | 68° |
| 2026-05-06 01:01 | -36.53074 | 176.27018 | 30406 ft | 497 kts | 68° |
| 2026-05-06 01:01 | -36.51709 | 176.30976 | 30715 ft | 500 kts | 68° |
| 2026-05-06 01:01 | -36.50334 | 176.34954 | 31066 ft | 502 kts | 68° |
| 2026-05-06 01:02 | -36.48948 | 176.38962 | 31394 ft | 504 kts | 68° |
| 2026-05-06 01:02 | -36.47576 | 176.42921 | 31707 ft | 506 kts | 68° |
| 2026-05-06 01:02 | -36.46180 | 176.46949 | 32022 ft | 508 kts | 68° |
| 2026-05-06 01:02 | -36.44777 | 176.50989 | 32325 ft | 511 kts | 68° |
| 2026-05-06 01:03 | -36.43367 | 176.55041 | 32666 ft | 512 kts | 68° |
| 2026-05-06 01:03 | -36.41948 | 176.59117 | 32947 ft | 514 kts | 68° |
| 2026-05-06 01:03 | -36.40526 | 176.63197 | 33252 ft | 516 kts | 68° |
| 2026-05-06 01:03 | -36.39090 | 176.67308 | 33520 ft | 518 kts | 68° |
| 2026-05-06 01:04 | -36.37655 | 176.71414 | 33892 ft | 518 kts | 68° |
| 2026-05-06 01:04 | -36.36219 | 176.75513 | 34342 ft | 517 kts | 68° |
| 2026-05-06 01:04 | -36.34786 | 176.79602 | 34700 ft | 516 kts | 68° |
| 2026-05-06 01:04 | -36.33371 | 176.83632 | 35021 ft | 516 kts | 68° |
| 2026-05-06 01:05 | -36.31935 | 176.87719 | 35341 ft | 516 kts | 68° |
| 2026-05-06 01:05 | -36.30502 | 176.91790 | 35655 ft | 516 kts | 68° |
| 2026-05-06 01:05 | -36.29065 | 176.95867 | 35992 ft | 515 kts | 67° |
| 2026-05-06 01:05 | -36.27630 | 176.99934 | 36323 ft | 515 kts | 67° |
| 2026-05-06 01:06 | -36.26196 | 177.03992 | 36643 ft | 514 kts | 67° |
| 2026-05-06 01:06 | -36.24757 | 177.08058 | 36958 ft | 514 kts | 67° |
| 2026-05-06 01:06 | -36.23321 | 177.12111 | 37267 ft | 514 kts | 67° |
| 2026-05-06 01:06 | -36.21882 | 177.16168 | 37576 ft | 514 kts | 67° |
| 2026-05-06 01:07 | -36.20445 | 177.20212 | 37881 ft | 513 kts | 67° |
| 2026-05-06 01:07 | -36.19004 | 177.24264 | 38173 ft | 513 kts | 67° |
| 2026-05-06 01:07 | -36.17564 | 177.28308 | 38478 ft | 513 kts | 67° |
| 2026-05-06 01:07 | -36.16122 | 177.32348 | 38773 ft | 513 kts | 67° |
| 2026-05-06 01:08 | -36.14684 | 177.36377 | 39110 ft | 512 kts | 66° |
| 2026-05-06 01:08 | -36.13246 | 177.40398 | 39395 ft | 510 kts | 66° |
| 2026-05-06 01:08 | -36.11801 | 177.44435 | 39418 ft | 515 kts | 66° |
| 2026-05-06 01:09 | -36.08928 | 177.52441 | 39417 ft | 510 kts | 66° |
| 2026-05-06 01:09 | -36.06059 | 177.60419 | 39414 ft | 507 kts | 66° |
| 2026-05-06 01:10 | -36.03188 | 177.68380 | 39423 ft | 507 kts | 66° |
| 2026-05-06 01:10 | -36.00311 | 177.76340 | 39417 ft | 507 kts | 66° |
| 2026-05-06 01:11 | -35.97425 | 177.84302 | 39416 ft | 507 kts | 66° |
| 2026-05-06 01:11 | -35.95024 | 177.90911 | 39421 ft | 506 kts | 66° |
| 2026-05-06 01:12 | -35.92137 | 177.98841 | 39422 ft | 506 kts | 66° |
| 2026-05-06 01:12 | -35.89246 | 178.06758 | 39422 ft | 505 kts | 66° |
| 2026-05-06 01:13 | -35.86369 | 178.14620 | 39427 ft | 506 kts | 66° |
| 2026-05-06 01:13 | -35.83461 | 178.22545 | 39434 ft | 508 kts | 66° |
| 2026-05-06 01:14 | -35.79078 | 178.34455 | 39441 ft | 509 kts | 66° |
| 2026-05-06 01:14 | -35.76166 | 178.42341 | 39441 ft | 508 kts | 66° |
| 2026-05-06 01:15 | -35.73238 | 178.50253 | 39427 ft | 507 kts | 66° |
| 2026-05-06 01:15 | -35.70310 | 178.58142 | 39433 ft | 506 kts | 66° |
| 2026-05-06 01:16 | -35.67390 | 178.66020 | 39434 ft | 505 kts | 66° |
| 2026-05-06 01:16 | -35.64491 | 178.73887 | 39415 ft | 505 kts | 66° |
| 2026-05-06 01:17 | -35.61568 | 178.81757 | 39425 ft | 506 kts | 66° |
| 2026-05-06 01:17 | -35.58640 | 178.89645 | 39432 ft | 507 kts | 65° |
| 2026-05-06 01:18 | -35.55708 | 178.97509 | 39440 ft | 506 kts | 65° |
| 2026-05-06 01:18 | -35.52801 | 179.05299 | 39436 ft | 504 kts | 65° |
| 2026-05-06 01:19 | -35.49871 | 179.13124 | 39437 ft | 504 kts | 65° |
| 2026-05-06 01:19 | -35.46939 | 179.20936 | 39431 ft | 504 kts | 65° |
| 2026-05-06 01:20 | -35.44003 | 179.28743 | 39431 ft | 504 kts | 65° |
| 2026-05-06 01:20 | -35.41063 | 179.36538 | 39428 ft | 503 kts | 65° |
| 2026-05-06 01:21 | -35.38120 | 179.44323 | 39438 ft | 503 kts | 65° |
| 2026-05-06 01:21 | -35.35171 | 179.52105 | 39433 ft | 503 kts | 65° |
| 2026-05-06 01:22 | -35.32221 | 179.59872 | 39437 ft | 503 kts | 65° |
| 2026-05-06 01:22 | -35.29277 | 179.67603 | 39432 ft | 505 kts | 65° |
| 2026-05-06 01:23 | -35.26302 | 179.75397 | 39436 ft | 506 kts | 65° |
| 2026-05-06 01:23 | -35.23317 | 179.83197 | 39437 ft | 505 kts | 65° |
| 2026-05-06 01:24 | -35.20338 | 179.90964 | 39439 ft | 504 kts | 65° |
| 2026-05-06 01:24 | -35.17357 | 179.98718 | 39434 ft | 504 kts | 65° |
| 2026-05-06 01:25 | -35.14386 | -179.93568 | 39441 ft | 503 kts | 64° |
| 2026-05-06 01:25 | -35.11399 | -179.85841 | 39432 ft | 504 kts | 64° |
| 2026-05-06 01:26 | -35.08396 | -179.78084 | 39442 ft | 504 kts | 64° |
| 2026-05-06 01:26 | -35.05390 | -179.70341 | 39438 ft | 505 kts | 64° |
| 2026-05-06 01:27 | -35.02382 | -179.62607 | 39434 ft | 503 kts | 64° |
| 2026-05-06 01:27 | -34.99370 | -179.54886 | 39434 ft | 504 kts | 64° |
| 2026-05-06 01:28 | -34.96379 | -179.47232 | 39436 ft | 502 kts | 64° |
| 2026-05-06 01:28 | -34.93365 | -179.39540 | 39426 ft | 503 kts | 64° |
| 2026-05-06 01:29 | -34.90348 | -179.31859 | 39430 ft | 503 kts | 64° |
| 2026-05-06 01:29 | -34.87320 | -179.24169 | 39432 ft | 503 kts | 64° |
| 2026-05-06 01:30 | -34.84289 | -179.16487 | 39433 ft | 503 kts | 63° |
| 2026-05-06 01:30 | -34.81252 | -179.08804 | 39426 ft | 503 kts | 63° |
| 2026-05-06 01:31 | -34.78211 | -179.01135 | 39428 ft | 504 kts | 63° |
| 2026-05-06 01:31 | -34.75164 | -178.93465 | 39426 ft | 503 kts | 63° |
| 2026-05-06 01:32 | -34.72112 | -178.85803 | 39421 ft | 504 kts | 63° |
| 2026-05-06 01:32 | -34.69084 | -178.78215 | 39426 ft | 500 kts | 63° |
| 2026-05-06 01:33 | -34.66041 | -178.70610 | 39422 ft | 501 kts | 63° |
| 2026-05-06 01:33 | -34.62992 | -178.63005 | 39426 ft | 501 kts | 63° |
| 2026-05-06 01:34 | -34.59924 | -178.55374 | 39427 ft | 502 kts | 63° |
| 2026-05-06 01:34 | -34.56863 | -178.47775 | 39426 ft | 502 kts | 63° |
| 2026-05-06 01:35 | -34.53800 | -178.40189 | 39424 ft | 498 kts | 62° |
| 2026-05-06 01:35 | -34.50746 | -178.32642 | 39410 ft | 499 kts | 62° |
| 2026-05-06 01:36 | -34.47679 | -178.25077 | 39418 ft | 499 kts | 62° |
| 2026-05-06 01:36 | -34.44606 | -178.17519 | 39419 ft | 500 kts | 62° |
| 2026-05-06 01:37 | -34.41534 | -178.09978 | 39419 ft | 499 kts | 62° |
| 2026-05-06 01:37 | -34.38475 | -178.02489 | 39417 ft | 498 kts | 62° |
| 2026-05-06 01:38 | -34.35407 | -177.94988 | 39423 ft | 498 kts | 62° |
| 2026-05-06 01:38 | -34.32324 | -177.87475 | 39420 ft | 497 kts | 62° |
| 2026-05-06 01:39 | -34.29240 | -177.79970 | 39416 ft | 499 kts | 62° |
| 2026-05-06 01:39 | -34.26166 | -177.72508 | 39418 ft | 498 kts | 62° |
| 2026-05-06 01:40 | -34.23078 | -177.65027 | 39411 ft | 495 kts | 62° |
| 2026-05-06 01:40 | -34.20000 | -177.57589 | 39413 ft | 494 kts | 62° |
| 2026-05-06 01:41 | -34.16920 | -177.50162 | 39414 ft | 496 kts | 61° |
| 2026-05-06 01:41 | -34.13823 | -177.42710 | 39416 ft | 497 kts | 61° |
| 2026-05-06 01:42 | -34.10822 | -177.35505 | 39417 ft | 497 kts | 61° |
| 2026-05-06 01:42 | -34.07715 | -177.28060 | 39415 ft | 497 kts | 60° |
| 2026-05-06 01:43 | -34.04605 | -177.20623 | 39410 ft | 497 kts | 60° |
| 2026-05-06 01:43 | -34.01501 | -177.13219 | 39410 ft | 497 kts | 60° |
| 2026-05-06 01:44 | -33.98378 | -177.05786 | 39413 ft | 497 kts | 60° |
| 2026-05-06 01:44 | -33.95253 | -176.98363 | 39410 ft | 497 kts | 60° |
| 2026-05-06 01:45 | -33.92128 | -176.90954 | 39405 ft | 496 kts | 60° |
| 2026-05-06 01:45 | -33.89003 | -176.83567 | 39405 ft | 494 kts | 59° |
| 2026-05-06 01:46 | -33.85888 | -176.76213 | 39404 ft | 493 kts | 59° |
| 2026-05-06 01:46 | -33.82763 | -176.68856 | 39402 ft | 493 kts | 59° |
| 2026-05-06 01:47 | -33.79643 | -176.61523 | 39409 ft | 493 kts | 59° |
| 2026-05-06 01:47 | -33.76534 | -176.54229 | 39407 ft | 493 kts | 58° |
| 2026-05-06 01:48 | -33.73390 | -176.46879 | 39405 ft | 495 kts | 58° |
| 2026-05-06 01:48 | -33.70233 | -176.39502 | 39407 ft | 497 kts | 58° |
| 2026-05-06 01:49 | -33.67072 | -176.32137 | 39404 ft | 494 kts | 58° |
| 2026-05-06 01:49 | -33.63924 | -176.24817 | 39401 ft | 492 kts | 58° |
| 2026-05-06 01:50 | -33.60779 | -176.17517 | 39396 ft | 493 kts | 57° |
| 2026-05-06 01:50 | -33.57590 | -176.10143 | 39405 ft | 501 kts | 57° |
| 2026-05-06 01:51 | -33.54408 | -176.02778 | 39409 ft | 500 kts | 57° |
| 2026-05-06 01:51 | -33.51204 | -175.95398 | 39406 ft | 498 kts | 56° |
| 2026-05-06 01:52 | -33.48005 | -175.88035 | 39407 ft | 497 kts | 56° |
| 2026-05-06 01:52 | -33.44801 | -175.80680 | 39407 ft | 498 kts | 56° |
| 2026-05-06 01:53 | -33.41588 | -175.73317 | 39402 ft | 498 kts | 56° |
| 2026-05-06 01:53 | -33.38400 | -175.66027 | 39402 ft | 498 kts | 56° |
| 2026-05-06 01:54 | -33.35178 | -175.58675 | 39402 ft | 498 kts | 56° |
| 2026-05-06 01:54 | -33.31954 | -175.51333 | 39402 ft | 498 kts | 56° |
| 2026-05-06 01:55 | -33.28731 | -175.44011 | 39398 ft | 498 kts | 56° |
| 2026-05-06 01:55 | -33.25486 | -175.36656 | 39394 ft | 503 kts | 56° |
| 2026-05-06 01:56 | -33.22236 | -175.29296 | 39395 ft | 503 kts | 56° |
| 2026-05-06 01:56 | -33.18967 | -175.21916 | 39395 ft | 502 kts | 56° |
| 2026-05-06 01:57 | -33.15703 | -175.14560 | 39385 ft | 501 kts | 56° |
| 2026-05-06 01:57 | -33.12435 | -175.07209 | 39390 ft | 501 kts | 56° |
| 2026-05-06 01:58 | -33.09168 | -174.99876 | 39388 ft | 499 kts | 56° |
| 2026-05-06 01:58 | -33.05901 | -174.92562 | 39392 ft | 500 kts | 56° |
| 2026-05-06 01:59 | -33.02628 | -174.85240 | 39394 ft | 498 kts | 56° |
| 2026-05-06 01:59 | -32.99386 | -174.78012 | 39393 ft | 497 kts | 56° |
| 2026-05-06 02:00 | -32.96103 | -174.70700 | 39391 ft | 497 kts | 56° |
| 2026-05-06 02:00 | -32.92843 | -174.63451 | 39389 ft | 495 kts | 55° |
| 2026-05-06 02:01 | -32.89610 | -174.56287 | 39386 ft | 494 kts | 55° |
| 2026-05-06 02:01 | -32.86351 | -174.49075 | 39387 ft | 494 kts | 55° |
| 2026-05-06 02:02 | -32.83089 | -174.41869 | 39388 ft | 495 kts | 55° |
| 2026-05-06 02:02 | -32.79814 | -174.34651 | 39388 ft | 496 kts | 55° |
| 2026-05-06 02:03 | -32.76535 | -174.27435 | 39378 ft | 496 kts | 54° |
| 2026-05-06 02:03 | -32.73237 | -174.20200 | 39386 ft | 500 kts | 55° |
| 2026-05-06 02:04 | -32.69944 | -174.12978 | 39385 ft | 500 kts | 55° |
| 2026-05-06 02:04 | -32.66627 | -174.05728 | 39374 ft | 499 kts | 55° |
| 2026-05-06 02:05 | -32.63310 | -173.98489 | 39380 ft | 498 kts | 54° |
| 2026-05-06 02:05 | -32.59998 | -173.91275 | 39378 ft | 498 kts | 54° |
| 2026-05-06 02:06 | -32.57239 | -173.85278 | 39372 ft | 499 kts | 54° |
| 2026-05-06 02:06 | -32.53365 | -173.76872 | 39377 ft | 501 kts | 54° |
| 2026-05-06 02:07 | -32.50578 | -173.70834 | 39382 ft | 500 kts | 54° |
| 2026-05-06 02:07 | -32.47232 | -173.63604 | 39380 ft | 499 kts | 54° |
| 2026-05-06 02:08 | -32.43897 | -173.56406 | 39369 ft | 496 kts | 54° |
| 2026-05-06 02:08 | -32.40027 | -173.48083 | 39372 ft | 498 kts | 54° |
| 2026-05-06 02:09 | -32.37246 | -173.42103 | 39376 ft | 499 kts | 54° |
| 2026-05-06 02:09 | -32.33892 | -173.34908 | 39379 ft | 499 kts | 54° |
| 2026-05-06 02:10 | -32.30533 | -173.27719 | 39383 ft | 499 kts | 54° |
| 2026-05-06 02:10 | -32.27174 | -173.20541 | 39377 ft | 499 kts | 54° |
| 2026-05-06 02:11 | -32.23809 | -173.13368 | 39366 ft | 499 kts | 53° |
| 2026-05-06 02:11 | -32.20426 | -173.06170 | 39364 ft | 501 kts | 54° |
| 2026-05-06 02:12 | -32.17044 | -172.98985 | 39372 ft | 500 kts | 53° |
| 2026-05-06 02:12 | -32.13657 | -172.91808 | 39366 ft | 499 kts | 54° |
| 2026-05-06 02:13 | -32.10272 | -172.84644 | 39353 ft | 500 kts | 54° |
| 2026-05-06 02:13 | -32.06904 | -172.77533 | 39349 ft | 500 kts | 53° |
| 2026-05-06 02:14 | -32.03491 | -172.70344 | 39360 ft | 503 kts | 53° |
| 2026-05-06 02:14 | -32.00073 | -172.63148 | 39358 ft | 503 kts | 53° |
| 2026-05-06 02:15 | -31.96650 | -172.55965 | 39354 ft | 503 kts | 53° |
| 2026-05-06 02:15 | -31.93225 | -172.48788 | 39357 ft | 502 kts | 53° |
| 2026-05-06 02:16 | -31.89797 | -172.41619 | 39353 ft | 502 kts | 53° |
| 2026-05-06 02:16 | -31.86371 | -172.34472 | 39353 ft | 507 kts | 53° |
| 2026-05-06 02:17 | -31.82892 | -172.27217 | 39348 ft | 508 kts | 53° |
| 2026-05-06 02:17 | -31.79401 | -172.19963 | 39348 ft | 510 kts | 53° |
| 2026-05-06 02:18 | -31.75904 | -172.12703 | 39348 ft | 510 kts | 52° |
| 2026-05-06 02:18 | -31.72405 | -172.05458 | 39347 ft | 509 kts | 52° |
| 2026-05-06 02:19 | -31.68908 | -171.98227 | 39341 ft | 509 kts | 52° |
| 2026-05-06 02:19 | -31.65425 | -171.91040 | 39342 ft | 509 kts | 52° |
| 2026-05-06 02:20 | -31.60161 | -171.80205 | 39342 ft | 509 kts | 52° |
| 2026-05-06 02:21 | -31.56644 | -171.72984 | 39338 ft | 509 kts | 52° |
| 2026-05-06 02:21 | -31.53129 | -171.65778 | 39338 ft | 509 kts | 52° |
| 2026-05-06 02:22 | -31.49593 | -171.58551 | 39334 ft | 514 kts | 52° |
| 2026-05-06 02:22 | -31.46034 | -171.51276 | 39334 ft | 514 kts | 52° |
| 2026-05-06 02:23 | -31.42478 | -171.44033 | 39328 ft | 512 kts | 52° |
| 2026-05-06 02:23 | -31.38952 | -171.36859 | 39321 ft | 511 kts | 52° |
| 2026-05-06 02:24 | -31.35397 | -171.29643 | 39326 ft | 510 kts | 52° |
| 2026-05-06 02:24 | -31.31841 | -171.22440 | 39339 ft | 513 kts | 51° |
| 2026-05-06 02:25 | -31.28271 | -171.15216 | 39331 ft | 514 kts | 52° |
| 2026-05-06 02:25 | -31.24681 | -171.07970 | 39334 ft | 514 kts | 51° |
| 2026-05-06 02:26 | -31.21120 | -171.00794 | 39335 ft | 514 kts | 51° |
| 2026-05-06 02:26 | -31.17555 | -170.93617 | 39316 ft | 507 kts | 51° |
| 2026-05-06 02:27 | -31.14014 | -170.86521 | 39310 ft | 505 kts | 50° |
| 2026-05-06 02:27 | -31.10464 | -170.79404 | 39313 ft | 508 kts | 50° |
| 2026-05-06 02:28 | -31.06893 | -170.72262 | 39319 ft | 509 kts | 50° |
| 2026-05-06 02:28 | -31.03325 | -170.65136 | 39319 ft | 508 kts | 50° |
| 2026-05-06 02:29 | -30.99761 | -170.58037 | 39313 ft | 507 kts | 50° |
| 2026-05-06 02:29 | -30.96200 | -170.50953 | 39315 ft | 507 kts | 50° |
| 2026-05-06 02:30 | -30.92615 | -170.43841 | 39309 ft | 510 kts | 50° |
| 2026-05-06 02:30 | -30.89028 | -170.36726 | 39308 ft | 510 kts | 50° |
| 2026-05-06 02:31 | -30.85444 | -170.29635 | 39305 ft | 505 kts | 50° |
| 2026-05-06 02:31 | -30.81883 | -170.22609 | 39300 ft | 503 kts | 50° |
| 2026-05-06 02:32 | -30.78319 | -170.15584 | 39293 ft | 504 kts | 50° |
| 2026-05-06 02:32 | -30.74733 | -170.08533 | 39308 ft | 508 kts | 50° |
| 2026-05-06 02:33 | -30.71138 | -170.01466 | 39308 ft | 508 kts | 50° |
| 2026-05-06 02:33 | -30.69946 | -169.99128 | 39308 ft | 508 kts | 50° |
| 2026-05-06 02:34 | -30.63957 | -169.87405 | 39307 ft | 507 kts | 50° |
| 2026-05-06 02:34 | -30.60352 | -169.80363 | 39306 ft | 507 kts | 50° |
| 2026-05-06 02:35 | -30.56731 | -169.73308 | 39302 ft | 510 kts | 50° |
| 2026-05-06 02:35 | -30.53104 | -169.66241 | 39293 ft | 507 kts | 50° |
| 2026-05-06 02:36 | -30.49500 | -169.59243 | 39289 ft | 504 kts | 50° |
| 2026-05-06 02:36 | -30.45901 | -169.52267 | 39291 ft | 504 kts | 50° |
| 2026-05-06 02:37 | -30.42296 | -169.45284 | 39287 ft | 505 kts | 50° |
| 2026-05-06 02:37 | -30.38698 | -169.38337 | 39291 ft | 508 kts | 50° |
| 2026-05-06 02:38 | -30.35053 | -169.31300 | 39293 ft | 509 kts | 50° |
| 2026-05-06 02:38 | -30.31406 | -169.24278 | 39294 ft | 508 kts | 50° |
| 2026-05-06 02:39 | -30.27756 | -169.17264 | 39292 ft | 508 kts | 50° |
| 2026-05-06 02:39 | -30.24112 | -169.10270 | 39290 ft | 507 kts | 50° |
| 2026-05-06 02:40 | -30.20464 | -169.03285 | 39291 ft | 509 kts | 50° |
| 2026-05-06 02:40 | -30.16780 | -168.96242 | 39289 ft | 512 kts | 50° |
| 2026-05-06 02:41 | -30.13095 | -168.89203 | 39289 ft | 512 kts | 50° |
| 2026-05-06 02:41 | -30.09406 | -168.82178 | 39287 ft | 511 kts | 50° |
| 2026-05-06 02:42 | -30.05715 | -168.75157 | 39287 ft | 511 kts | 50° |
| 2026-05-06 02:42 | -30.02044 | -168.68187 | 39281 ft | 511 kts | 50° |
| 2026-05-06 02:43 | -29.98341 | -168.61170 | 39277 ft | 513 kts | 50° |
| 2026-05-06 02:43 | -29.94628 | -168.54142 | 39275 ft | 513 kts | 50° |
| 2026-05-06 02:44 | -29.90914 | -168.47129 | 39272 ft | 512 kts | 50° |
| 2026-05-06 02:44 | -29.87202 | -168.40129 | 39287 ft | 510 kts | 50° |
| 2026-05-06 02:45 | -29.83501 | -168.33164 | 39270 ft | 508 kts | 50° |
| 2026-05-06 02:45 | -29.79810 | -168.26230 | 39266 ft | 508 kts | 50° |
| 2026-05-06 02:46 | -29.76112 | -168.19295 | 39274 ft | 508 kts | 50° |
| 2026-05-06 02:46 | -29.72415 | -168.12372 | 39265 ft | 508 kts | 50° |
| 2026-05-06 02:47 | -29.68709 | -168.05443 | 39276 ft | 508 kts | 50° |
| 2026-05-06 02:47 | -29.65027 | -167.98573 | 39268 ft | 508 kts | 50° |
| 2026-05-06 02:48 | -29.61313 | -167.91656 | 39270 ft | 509 kts | 50° |
| 2026-05-06 02:48 | -29.57584 | -167.84720 | 39275 ft | 511 kts | 50° |
| 2026-05-06 02:49 | -29.53847 | -167.77780 | 39265 ft | 510 kts | 50° |
| 2026-05-06 02:49 | -29.50123 | -167.70878 | 39262 ft | 507 kts | 50° |
| 2026-05-06 02:50 | -29.46410 | -167.64009 | 39256 ft | 506 kts | 50° |
| 2026-05-06 02:50 | -29.42696 | -167.57148 | 39264 ft | 507 kts | 50° |
| 2026-05-06 02:51 | -29.38950 | -167.50243 | 39270 ft | 511 kts | 50° |
| 2026-05-06 02:51 | -29.35198 | -167.43330 | 39273 ft | 510 kts | 50° |
| 2026-05-06 02:52 | -29.31459 | -167.36463 | 39272 ft | 510 kts | 50° |
| 2026-05-06 02:52 | -29.28314 | -167.30689 | 39271 ft | 510 kts | 50° |
| 2026-05-06 02:53 | -29.24574 | -167.23838 | 39270 ft | 509 kts | 50° |
| 2026-05-06 02:53 | -29.20814 | -167.16962 | 39260 ft | 511 kts | 50° |
| 2026-05-06 02:54 | -29.17057 | -167.10094 | 39255 ft | 507 kts | 50° |
| 2026-05-06 02:54 | -29.13309 | -167.03269 | 39255 ft | 506 kts | 50° |
| 2026-05-06 02:55 | -29.09568 | -166.96456 | 39254 ft | 506 kts | 50° |
| 2026-05-06 02:55 | -29.05811 | -166.89631 | 39246 ft | 506 kts | 50° |
| 2026-05-06 02:56 | -29.02047 | -166.82806 | 39250 ft | 508 kts | 49° |
| 2026-05-06 02:56 | -28.98276 | -166.75972 | 39251 ft | 509 kts | 49° |
| 2026-05-06 02:57 | -28.94511 | -166.69166 | 39254 ft | 510 kts | 49° |
| 2026-05-06 02:57 | -28.90718 | -166.62318 | 39253 ft | 510 kts | 49° |
| 2026-05-06 02:58 | -28.86924 | -166.55480 | 39254 ft | 510 kts | 49° |
| 2026-05-06 02:58 | -28.83137 | -166.48662 | 39251 ft | 506 kts | 49° |
| 2026-05-06 02:59 | -28.79380 | -166.41922 | 39239 ft | 506 kts | 49° |
| 2026-05-06 02:59 | -28.75595 | -166.35129 | 39253 ft | 508 kts | 49° |
| 2026-05-06 03:00 | -28.71799 | -166.28333 | 39248 ft | 508 kts | 49° |
| 2026-05-06 03:00 | -28.67995 | -166.21533 | 39248 ft | 508 kts | 48° |
| 2026-05-06 03:01 | -28.64195 | -166.14750 | 39246 ft | 508 kts | 48° |
| 2026-05-06 03:01 | -28.60392 | -166.07974 | 39234 ft | 508 kts | 48° |
| 2026-05-06 03:02 | -28.56605 | -166.01237 | 39230 ft | 509 kts | 48° |
| 2026-05-06 03:02 | -28.52782 | -165.94447 | 39229 ft | 509 kts | 48° |
| 2026-05-06 03:03 | -28.48962 | -165.87671 | 39228 ft | 507 kts | 48° |
| 2026-05-06 03:03 | -28.45173 | -165.80962 | 39221 ft | 503 kts | 48° |
| 2026-05-06 03:04 | -28.41390 | -165.74278 | 39229 ft | 503 kts | 48° |
| 2026-05-06 03:04 | -28.37596 | -165.67582 | 39231 ft | 505 kts | 48° |
| 2026-05-06 03:05 | -28.33785 | -165.60865 | 39228 ft | 506 kts | 48° |
| 2026-05-06 03:05 | -28.29997 | -165.54198 | 39228 ft | 504 kts | 48° |
| 2026-05-06 03:06 | -28.26194 | -165.47520 | 39224 ft | 503 kts | 48° |
| 2026-05-06 03:06 | -28.22400 | -165.40864 | 39215 ft | 501 kts | 47° |
| 2026-05-06 03:07 | -28.18593 | -165.34204 | 39213 ft | 505 kts | 47° |
| 2026-05-06 03:07 | -28.14773 | -165.27519 | 39205 ft | 505 kts | 48° |
| 2026-05-06 03:08 | -28.10946 | -165.20841 | 39221 ft | 506 kts | 48° |
| 2026-05-06 03:08 | -28.07110 | -165.14154 | 39223 ft | 506 kts | 48° |
| 2026-05-06 03:09 | -28.03268 | -165.07468 | 39225 ft | 506 kts | 48° |
| 2026-05-06 03:09 | -27.99450 | -165.00836 | 39212 ft | 507 kts | 48° |
| 2026-05-06 03:10 | -27.95582 | -164.94125 | 39215 ft | 508 kts | 48° |
| 2026-05-06 03:10 | -27.91720 | -164.87435 | 39206 ft | 507 kts | 48° |
| 2026-05-06 03:11 | -27.87864 | -164.80768 | 39204 ft | 506 kts | 48° |
| 2026-05-06 03:11 | -27.84009 | -164.74110 | 39204 ft | 506 kts | 47° |
| 2026-05-06 03:12 | -27.80156 | -164.67468 | 39208 ft | 505 kts | 47° |
| 2026-05-06 03:12 | -27.76332 | -164.60885 | 39205 ft | 505 kts | 48° |
| 2026-05-06 03:13 | -27.72465 | -164.54240 | 39207 ft | 508 kts | 48° |
| 2026-05-06 03:13 | -27.68588 | -164.47583 | 39206 ft | 507 kts | 48° |
| 2026-05-06 03:14 | -27.64710 | -164.40939 | 39203 ft | 506 kts | 48° |
| 2026-05-06 03:14 | -27.60839 | -164.34314 | 39194 ft | 505 kts | 47° |
| 2026-05-06 03:15 | -27.56954 | -164.27682 | 39204 ft | 507 kts | 47° |
| 2026-05-06 03:15 | -27.53067 | -164.21048 | 39203 ft | 508 kts | 47° |
| 2026-05-06 03:16 | -27.49169 | -164.14411 | 39202 ft | 508 kts | 47° |
| 2026-05-06 03:16 | -27.45265 | -164.07770 | 39201 ft | 508 kts | 47° |
| 2026-05-06 03:17 | -27.41402 | -164.01208 | 39204 ft | 503 kts | 46° |
| 2026-05-06 03:17 | -27.37540 | -163.94664 | 39193 ft | 502 kts | 46° |
| 2026-05-06 03:18 | -27.33666 | -163.88105 | 39189 ft | 504 kts | 46° |
| 2026-05-06 03:18 | -27.29775 | -163.81527 | 39196 ft | 505 kts | 46° |
| 2026-05-06 03:19 | -27.25882 | -163.74954 | 39195 ft | 504 kts | 46° |
| 2026-05-06 03:19 | -27.21998 | -163.68408 | 39189 ft | 503 kts | 46° |
| 2026-05-06 03:20 | -27.16150 | -163.58579 | 39188 ft | 509 kts | 46° |
| 2026-05-06 03:20 | -27.12246 | -163.52010 | 39188 ft | 508 kts | 46° |
| 2026-05-06 03:21 | -27.08316 | -163.45428 | 39188 ft | 506 kts | 46° |
| 2026-05-06 03:21 | -27.04408 | -163.38879 | 39179 ft | 503 kts | 46° |
| 2026-05-06 03:22 | -27.00513 | -163.32372 | 39177 ft | 502 kts | 46° |
| 2026-05-06 03:22 | -26.96610 | -163.25859 | 39184 ft | 504 kts | 46° |
| 2026-05-06 03:23 | -26.92708 | -163.19353 | 39192 ft | 506 kts | 46° |
| 2026-05-06 03:23 | -26.88774 | -163.12804 | 39192 ft | 506 kts | 46° |
| 2026-05-06 03:24 | -26.84842 | -163.06268 | 39188 ft | 505 kts | 46° |
| 2026-05-06 03:24 | -26.80908 | -162.99740 | 39183 ft | 505 kts | 46° |
| 2026-05-06 03:25 | -26.76981 | -162.93232 | 39180 ft | 505 kts | 46° |
| 2026-05-06 03:25 | -26.73031 | -162.86696 | 39181 ft | 507 kts | 46° |
| 2026-05-06 03:26 | -26.69073 | -162.80154 | 39181 ft | 507 kts | 46° |
| 2026-05-06 03:26 | -26.65114 | -162.73623 | 39179 ft | 507 kts | 46° |
| 2026-05-06 03:27 | -26.61179 | -162.67138 | 39175 ft | 507 kts | 46° |
| 2026-05-06 03:27 | -26.57217 | -162.60621 | 39172 ft | 507 kts | 46° |
| 2026-05-06 03:28 | -26.53241 | -162.54089 | 39166 ft | 508 kts | 46° |
| 2026-05-06 03:28 | -26.49267 | -162.47568 | 39165 ft | 508 kts | 46° |
| 2026-05-06 03:29 | -26.45278 | -162.41034 | 39160 ft | 508 kts | 46° |
| 2026-05-06 03:29 | -26.41291 | -162.34512 | 39163 ft | 508 kts | 46° |
| 2026-05-06 03:30 | -26.37298 | -162.27990 | 39161 ft | 508 kts | 46° |
| 2026-05-06 03:30 | -26.33304 | -162.21476 | 39165 ft | 509 kts | 46° |
| 2026-05-06 03:31 | -26.29313 | -162.14972 | 39168 ft | 507 kts | 46° |
| 2026-05-06 03:31 | -26.25332 | -162.08499 | 39147 ft | 506 kts | 46° |
| 2026-05-06 03:32 | -26.21382 | -162.02083 | 39165 ft | 506 kts | 46° |
| 2026-05-06 03:32 | -26.17386 | -161.95603 | 39162 ft | 507 kts | 46° |
| 2026-05-06 03:33 | -26.13384 | -161.89121 | 39163 ft | 509 kts | 46° |
| 2026-05-06 03:33 | -26.09369 | -161.82627 | 39166 ft | 509 kts | 46° |
| 2026-05-06 03:34 | -26.05360 | -161.76150 | 39163 ft | 507 kts | 46° |
| 2026-05-06 03:34 | -26.01355 | -161.69693 | 39154 ft | 506 kts | 46° |
| 2026-05-06 03:35 | -25.97368 | -161.63270 | 39128 ft | 504 kts | 46° |
| 2026-05-06 03:35 | -25.93395 | -161.56879 | 39149 ft | 502 kts | 46° |
| 2026-05-06 03:36 | -25.89396 | -161.50465 | 39145 ft | 509 kts | 46° |
| 2026-05-06 03:36 | -25.85373 | -161.44001 | 39151 ft | 509 kts | 46° |
| 2026-05-06 03:37 | -25.82022 | -161.38638 | 39155 ft | 508 kts | 46° |
| 2026-05-06 03:37 | -25.77347 | -161.31159 | 39153 ft | 506 kts | 46° |
| 2026-05-06 03:38 | -25.73977 | -161.25775 | 39145 ft | 506 kts | 46° |
| 2026-05-06 03:38 | -25.69964 | -161.19373 | 39142 ft | 505 kts | 46° |
| 2026-05-06 03:39 | -25.65958 | -161.12990 | 39141 ft | 504 kts | 46° |
| 2026-05-06 03:39 | -25.61941 | -161.06600 | 39142 ft | 505 kts | 46° |
| 2026-05-06 03:40 | -25.57922 | -161.00212 | 39140 ft | 503 kts | 46° |
| 2026-05-06 03:40 | -25.53948 | -160.93908 | 39139 ft | 502 kts | 46° |
| 2026-05-06 03:41 | -25.49945 | -160.87567 | 39139 ft | 502 kts | 46° |
| 2026-05-06 03:41 | -25.45909 | -160.81183 | 39140 ft | 508 kts | 46° |
| 2026-05-06 03:42 | -25.41862 | -160.74778 | 39141 ft | 507 kts | 46° |
| 2026-05-06 03:42 | -25.37813 | -160.68393 | 39140 ft | 506 kts | 46° |
| 2026-05-06 03:43 | -25.33767 | -160.62015 | 39138 ft | 505 kts | 46° |
| 2026-05-06 03:43 | -25.29755 | -160.55700 | 39133 ft | 505 kts | 46° |
| 2026-05-06 03:44 | -25.25712 | -160.49348 | 39130 ft | 507 kts | 46° |
| 2026-05-06 03:44 | -25.21641 | -160.42958 | 39135 ft | 508 kts | 46° |
| 2026-05-06 03:45 | -25.17583 | -160.36592 | 39133 ft | 506 kts | 46° |
| 2026-05-06 03:45 | -25.13528 | -160.30245 | 39123 ft | 504 kts | 46° |
| 2026-05-06 03:46 | -25.09476 | -160.23911 | 39124 ft | 505 kts | 46° |
| 2026-05-06 03:46 | -25.05411 | -160.17564 | 39133 ft | 508 kts | 46° |
| 2026-05-06 03:47 | -25.01344 | -160.11222 | 39134 ft | 510 kts | 46° |
| 2026-05-06 03:47 | -24.97250 | -160.04845 | 39134 ft | 509 kts | 46° |
| 2026-05-06 03:48 | -24.93160 | -159.98487 | 39129 ft | 508 kts | 46° |
| 2026-05-06 03:48 | -24.89067 | -159.92127 | 39126 ft | 507 kts | 46° |
| 2026-05-06 03:49 | -24.84984 | -159.85795 | 39094 ft | 507 kts | 45° |
| 2026-05-06 03:49 | -24.80929 | -159.79509 | 39125 ft | 501 kts | 45° |
| 2026-05-06 03:50 | -24.76874 | -159.73245 | 39130 ft | 503 kts | 45° |
| 2026-05-06 03:50 | -24.72809 | -159.66959 | 39134 ft | 505 kts | 45° |
| 2026-05-06 03:51 | -24.68722 | -159.60654 | 39129 ft | 505 kts | 45° |
| 2026-05-06 03:51 | -24.64669 | -159.54406 | 39127 ft | 504 kts | 45° |
| 2026-05-06 03:52 | -24.60586 | -159.48127 | 39122 ft | 506 kts | 45° |
| 2026-05-06 03:52 | -24.56491 | -159.41829 | 39124 ft | 507 kts | 45° |
| 2026-05-06 03:53 | -24.52388 | -159.35532 | 39120 ft | 506 kts | 45° |
| 2026-05-06 03:53 | -24.48290 | -159.29248 | 39117 ft | 506 kts | 45° |
| 2026-05-06 03:54 | -24.44182 | -159.22962 | 39112 ft | 508 kts | 46° |
| 2026-05-06 03:54 | -24.40051 | -159.16640 | 39114 ft | 511 kts | 46° |
| 2026-05-06 03:55 | -24.35887 | -159.10285 | 39114 ft | 513 kts | 46° |
| 2026-05-06 03:55 | -24.31755 | -159.03978 | 39111 ft | 511 kts | 46° |
| 2026-05-06 03:56 | -24.27603 | -158.97657 | 39107 ft | 510 kts | 46° |
| 2026-05-06 03:56 | -24.23463 | -158.91356 | 39103 ft | 509 kts | 46° |
| 2026-05-06 03:57 | -24.19305 | -158.85044 | 39100 ft | 511 kts | 46° |
| 2026-05-06 03:57 | -24.15104 | -158.78670 | 39122 ft | 519 kts | 46° |
| 2026-05-06 03:58 | -24.10883 | -158.72265 | 39107 ft | 517 kts | 46° |
| 2026-05-06 03:58 | -24.06717 | -158.65966 | 39113 ft | 510 kts | 47° |
| 2026-05-06 03:59 | -24.02575 | -158.59700 | 39107 ft | 508 kts | 47° |
| 2026-05-06 03:59 | -23.98421 | -158.53434 | 39102 ft | 510 kts | 47° |
| 2026-05-06 04:00 | -23.94230 | -158.47113 | 39104 ft | 515 kts | 47° |
| 2026-05-06 04:00 | -23.90034 | -158.40792 | 39105 ft | 513 kts | 47° |
| 2026-05-06 04:01 | -23.85847 | -158.34497 | 39107 ft | 511 kts | 47° |
| 2026-05-06 04:01 | -23.81665 | -158.28214 | 39087 ft | 510 kts | 47° |
| 2026-05-06 04:02 | -23.77484 | -158.21943 | 39104 ft | 511 kts | 47° |
| 2026-05-06 04:02 | -23.73275 | -158.15639 | 39111 ft | 518 kts | 48° |
| 2026-05-06 04:03 | -23.69009 | -158.09251 | 39105 ft | 519 kts | 48° |
| 2026-05-06 04:03 | -23.64768 | -158.02911 | 39106 ft | 516 kts | 48° |
| 2026-05-06 04:04 | -23.60570 | -157.96648 | 39106 ft | 516 kts | 48° |
| 2026-05-06 04:04 | -23.56336 | -157.90334 | 39100 ft | 516 kts | 48° |
| 2026-05-06 04:05 | -23.52095 | -157.84021 | 39105 ft | 516 kts | 48° |
| 2026-05-06 04:05 | -23.47851 | -157.77708 | 39097 ft | 516 kts | 48° |
| 2026-05-06 04:06 | -23.43598 | -157.71392 | 39103 ft | 517 kts | 48° |
| 2026-05-06 04:06 | -23.39344 | -157.65080 | 39103 ft | 517 kts | 48° |
| 2026-05-06 04:07 | -23.35086 | -157.58772 | 39105 ft | 517 kts | 48° |
| 2026-05-06 04:07 | -23.30820 | -157.52460 | 39083 ft | 520 kts | 47° |
| 2026-05-06 04:08 | -23.26483 | -157.46055 | 39098 ft | 529 kts | 47° |
| 2026-05-06 04:08 | -23.22146 | -157.39645 | 39104 ft | 528 kts | 47° |
| 2026-05-06 04:09 | -23.17783 | -157.33218 | 39099 ft | 528 kts | 47° |
| 2026-05-06 04:09 | -23.13421 | -157.26792 | 39099 ft | 528 kts | 47° |
| 2026-05-06 04:10 | -23.09057 | -157.20374 | 39100 ft | 528 kts | 47° |
| 2026-05-06 04:10 | -23.04691 | -157.13962 | 39102 ft | 527 kts | 47° |
| 2026-05-06 04:11 | -23.00331 | -157.07566 | 39095 ft | 526 kts | 47° |
| 2026-05-06 04:11 | -22.95978 | -157.01189 | 39096 ft | 526 kts | 47° |
| 2026-05-06 04:12 | -22.91623 | -156.94814 | 39092 ft | 525 kts | 47° |
| 2026-05-06 04:12 | -22.87302 | -156.88494 | 39081 ft | 524 kts | 46° |
| 2026-05-06 04:13 | -22.82954 | -156.82144 | 39085 ft | 524 kts | 46° |
| 2026-05-06 04:13 | -22.78600 | -156.75792 | 39087 ft | 525 kts | 46° |
| 2026-05-06 04:14 | -22.74232 | -156.69427 | 39091 ft | 526 kts | 46° |
| 2026-05-06 04:14 | -22.69853 | -156.63054 | 39091 ft | 527 kts | 46° |
| 2026-05-06 04:15 | -22.65469 | -156.56681 | 39085 ft | 527 kts | 47° |
| 2026-05-06 04:15 | -22.61081 | -156.50311 | 39086 ft | 527 kts | 47° |
| 2026-05-06 04:16 | -22.56691 | -156.43946 | 39085 ft | 527 kts | 47° |
| 2026-05-06 04:16 | -22.52324 | -156.37618 | 39071 ft | 523 kts | 47° |
| 2026-05-06 04:17 | -22.48000 | -156.31366 | 39074 ft | 522 kts | 47° |
| 2026-05-06 04:17 | -22.43654 | -156.25086 | 39074 ft | 522 kts | 47° |
| 2026-05-06 04:18 | -22.39308 | -156.18813 | 39072 ft | 520 kts | 47° |
| 2026-05-06 04:18 | -22.34971 | -156.12563 | 39076 ft | 520 kts | 47° |
| 2026-05-06 04:19 | -22.30623 | -156.06304 | 39070 ft | 521 kts | 47° |
| 2026-05-06 04:19 | -22.26269 | -156.00042 | 39073 ft | 522 kts | 47° |
| 2026-05-06 04:20 | -22.21905 | -155.93774 | 39074 ft | 522 kts | 47° |
| 2026-05-06 04:20 | -22.17542 | -155.87513 | 39071 ft | 521 kts | 47° |
| 2026-05-06 04:21 | -22.13213 | -155.81307 | 39069 ft | 514 kts | 47° |
| 2026-05-06 04:21 | -22.08913 | -155.75157 | 39070 ft | 515 kts | 47° |
| 2026-05-06 04:22 | -22.04596 | -155.68982 | 39069 ft | 516 kts | 47° |
| 2026-05-06 04:23 | -21.98116 | -155.59732 | 39071 ft | 517 kts | 47° |
| 2026-05-06 04:23 | -21.93800 | -155.53576 | 39062 ft | 513 kts | 47° |
| 2026-05-06 04:24 | -21.89493 | -155.47447 | 39061 ft | 512 kts | 47° |
| 2026-05-06 04:24 | -21.85917 | -155.42358 | 39057 ft | 512 kts | 47° |
| 2026-05-06 04:25 | -21.81605 | -155.36230 | 39057 ft | 512 kts | 47° |
| 2026-05-06 04:25 | -21.77300 | -155.30119 | 39053 ft | 512 kts | 48° |
| 2026-05-06 04:26 | -21.72976 | -155.23991 | 39059 ft | 518 kts | 48° |
| 2026-05-06 04:26 | -21.68610 | -155.17803 | 39058 ft | 518 kts | 48° |
| 2026-05-06 04:27 | -21.64247 | -155.11633 | 39059 ft | 517 kts | 48° |
| 2026-05-06 04:27 | -21.59894 | -155.05480 | 39050 ft | 517 kts | 48° |
| 2026-05-06 04:28 | -21.55547 | -154.99344 | 39053 ft | 516 kts | 48° |
| 2026-05-06 04:28 | -21.51219 | -154.93240 | 39056 ft | 508 kts | 48° |
| 2026-05-06 04:29 | -21.46942 | -154.87220 | 39049 ft | 508 kts | 48° |
| 2026-05-06 04:29 | -21.42670 | -154.81209 | 39049 ft | 510 kts | 48° |
| 2026-05-06 04:30 | -21.38344 | -154.75130 | 39039 ft | 513 kts | 49° |
| 2026-05-06 04:30 | -21.34004 | -154.69038 | 39042 ft | 513 kts | 49° |
| 2026-05-06 04:31 | -21.29672 | -154.62962 | 39042 ft | 512 kts | 49° |
| 2026-05-06 04:31 | -21.25342 | -154.56898 | 39039 ft | 511 kts | 49° |
| 2026-05-06 04:32 | -21.21016 | -154.50844 | 39034 ft | 510 kts | 49° |
| 2026-05-06 04:32 | -21.16715 | -154.44834 | 39025 ft | 511 kts | 49° |
| 2026-05-06 04:33 | -21.12386 | -154.38789 | 39025 ft | 512 kts | 49° |
| 2026-05-06 04:33 | -21.08048 | -154.32740 | 39030 ft | 513 kts | 49° |
| 2026-05-06 04:34 | -21.03684 | -154.26660 | 39034 ft | 515 kts | 49° |
| 2026-05-06 04:34 | -20.99322 | -154.20588 | 39021 ft | 512 kts | 49° |
| 2026-05-06 04:35 | -20.94989 | -154.14565 | 39024 ft | 510 kts | 49° |
| 2026-05-06 04:35 | -20.90661 | -154.08555 | 39023 ft | 510 kts | 49° |
| 2026-05-06 04:36 | -20.86326 | -154.02541 | 39019 ft | 510 kts | 49° |
| 2026-05-06 04:36 | -20.82004 | -153.96550 | 39013 ft | 504 kts | 49° |
| 2026-05-06 04:37 | -20.81813 | -153.96285 | 39013 ft | 504 kts | 49° |
| 2026-05-06 04:37 | -20.78905 | -153.92262 | 39031 ft | 509 kts | 49° |
| 2026-05-06 04:38 | -20.74578 | -153.86276 | 39030 ft | 509 kts | 49° |
| 2026-05-06 04:38 | -20.70229 | -153.80267 | 39030 ft | 511 kts | 49° |
| 2026-05-06 04:39 | -20.65870 | -153.74250 | 39027 ft | 512 kts | 49° |
| 2026-05-06 04:39 | -20.61514 | -153.68244 | 39008 ft | 512 kts | 49° |
| 2026-05-06 04:40 | -20.57139 | -153.62217 | 39014 ft | 513 kts | 49° |
| 2026-05-06 04:40 | -20.52787 | -153.56229 | 39015 ft | 514 kts | 49° |
| 2026-05-06 04:41 | -20.48409 | -153.50211 | 39017 ft | 512 kts | 49° |
| 2026-05-06 04:41 | -20.44030 | -153.44198 | 39014 ft | 511 kts | 49° |
| 2026-05-06 04:42 | -20.39664 | -153.38209 | 39004 ft | 513 kts | 49° |
| 2026-05-06 04:42 | -20.35299 | -153.32229 | 39004 ft | 515 kts | 49° |
| 2026-05-06 04:43 | -20.30904 | -153.26211 | 39008 ft | 515 kts | 49° |
| 2026-05-06 04:43 | -20.26640 | -153.20381 | 39005 ft | 513 kts | 49° |
| 2026-05-06 04:44 | -20.22253 | -153.14387 | 38996 ft | 511 kts | 49° |
| 2026-05-06 04:44 | -20.17909 | -153.08457 | 38988 ft | 506 kts | 49° |
| 2026-05-06 04:45 | -20.13554 | -153.02526 | 38989 ft | 511 kts | 49° |
| 2026-05-06 04:45 | -20.09196 | -152.96586 | 38989 ft | 512 kts | 49° |
| 2026-05-06 04:46 | -20.04801 | -152.90609 | 38996 ft | 513 kts | 49° |
| 2026-05-06 04:46 | -20.00410 | -152.84640 | 38998 ft | 513 kts | 49° |
| 2026-05-06 04:47 | -19.96008 | -152.78664 | 39000 ft | 513 kts | 49° |
| 2026-05-06 04:47 | -19.91601 | -152.72685 | 38998 ft | 513 kts | 49° |
| 2026-05-06 04:48 | -19.87197 | -152.66717 | 38998 ft | 513 kts | 49° |
| 2026-05-06 04:48 | -19.82797 | -152.60761 | 38990 ft | 512 kts | 49° |
| 2026-05-06 04:49 | -19.78437 | -152.54865 | 38982 ft | 510 kts | 49° |
| 2026-05-06 04:49 | -19.74026 | -152.48906 | 38978 ft | 509 kts | 49° |
| 2026-05-06 04:50 | -19.69657 | -152.43010 | 38979 ft | 509 kts | 49° |
| 2026-05-06 04:50 | -19.65294 | -152.37128 | 38983 ft | 511 kts | 49° |
| 2026-05-06 04:51 | -19.60883 | -152.31186 | 38988 ft | 513 kts | 49° |
| 2026-05-06 04:51 | -19.56473 | -152.25252 | 38987 ft | 511 kts | 49° |
| 2026-05-06 04:52 | -19.52073 | -152.19336 | 38982 ft | 510 kts | 49° |
| 2026-05-06 04:52 | -19.47693 | -152.13454 | 38980 ft | 510 kts | 49° |
| 2026-05-06 04:53 | -19.43290 | -152.07547 | 38976 ft | 510 kts | 49° |
| 2026-05-06 04:53 | -19.38886 | -152.01644 | 38977 ft | 511 kts | 49° |
| 2026-05-06 04:54 | -19.34466 | -151.95726 | 38980 ft | 512 kts | 49° |
| 2026-05-06 04:54 | -19.30036 | -151.89799 | 38980 ft | 513 kts | 49° |
| 2026-05-06 04:55 | -19.25604 | -151.83875 | 38981 ft | 513 kts | 49° |
| 2026-05-06 04:55 | -19.21170 | -151.77955 | 38982 ft | 513 kts | 49° |
| 2026-05-06 04:56 | -19.16731 | -151.72034 | 38988 ft | 513 kts | 49° |
| 2026-05-06 04:56 | -19.12295 | -151.66122 | 38981 ft | 512 kts | 49° |
| 2026-05-06 04:57 | -19.07893 | -151.60262 | 38981 ft | 511 kts | 49° |
| 2026-05-06 04:57 | -19.03466 | -151.54375 | 38972 ft | 510 kts | 49° |
| 2026-05-06 04:58 | -18.99048 | -151.48504 | 38966 ft | 510 kts | 49° |
| 2026-05-06 04:58 | -18.94632 | -151.42642 | 38968 ft | 509 kts | 49° |
| 2026-05-06 04:59 | -18.90210 | -151.36777 | 38969 ft | 511 kts | 49° |
| 2026-05-06 04:59 | -18.85765 | -151.30887 | 38970 ft | 513 kts | 49° |
| 2026-05-06 05:00 | -18.81343 | -151.25033 | 38805 ft | 512 kts | 49° |
| 2026-05-06 05:00 | -18.79111 | -151.22092 | 38326 ft | 515 kts | 49° |
| 2026-05-06 05:00 | -18.76822 | -151.19167 | 37951 ft | 515 kts | 48° |
| 2026-05-06 05:00 | -18.74527 | -151.16271 | 37585 ft | 515 kts | 48° |
| 2026-05-06 05:01 | -18.72246 | -151.13345 | 37214 ft | 516 kts | 49° |
| 2026-05-06 05:01 | -18.69987 | -151.10420 | 36845 ft | 515 kts | 48° |
| 2026-05-06 05:01 | -18.67700 | -151.07484 | 36482 ft | 515 kts | 48° |
| 2026-05-06 05:01 | -18.65439 | -151.04603 | 35445 ft | 508 kts | 48° |
| 2026-05-06 05:02 | -18.63168 | -151.01703 | 33887 ft | 514 kts | 48° |
| 2026-05-06 05:02 | -18.60891 | -150.98785 | 33089 ft | 522 kts | 48° |
| 2026-05-06 05:02 | -18.58596 | -150.95841 | 32810 ft | 519 kts | 48° |
| 2026-05-06 05:02 | -18.56294 | -150.92900 | 32295 ft | 520 kts | 48° |
| 2026-05-06 05:03 | -18.53997 | -150.89971 | 32051 ft | 516 kts | 48° |
| 2026-05-06 05:03 | -18.51718 | -150.87058 | 31721 ft | 514 kts | 48° |
| 2026-05-06 05:03 | -18.49450 | -150.84160 | 31418 ft | 511 kts | 47° |
| 2026-05-06 05:03 | -18.47190 | -150.81277 | 31125 ft | 509 kts | 47° |
| 2026-05-06 05:04 | -18.44945 | -150.78415 | 30830 ft | 506 kts | 47° |
| 2026-05-06 05:04 | -18.42702 | -150.75556 | 30554 ft | 504 kts | 47° |
| 2026-05-06 05:04 | -18.40473 | -150.72715 | 30268 ft | 502 kts | 47° |
| 2026-05-06 05:04 | -18.38254 | -150.69888 | 29991 ft | 499 kts | 47° |
| 2026-05-06 05:05 | -18.36068 | -150.67105 | 29689 ft | 497 kts | 47° |
| 2026-05-06 05:05 | -18.33871 | -150.64309 | 29382 ft | 495 kts | 47° |
| 2026-05-06 05:05 | -18.31678 | -150.61521 | 29075 ft | 493 kts | 47° |
| 2026-05-06 05:05 | -18.29498 | -150.58748 | 28785 ft | 491 kts | 47° |
| 2026-05-06 05:06 | -18.27326 | -150.55987 | 28476 ft | 489 kts | 47° |
| 2026-05-06 05:06 | -18.25159 | -150.53234 | 28189 ft | 487 kts | 47° |
| 2026-05-06 05:06 | -18.22999 | -150.50493 | 27916 ft | 485 kts | 48° |
| 2026-05-06 05:06 | -18.20851 | -150.47766 | 27646 ft | 483 kts | 48° |
| 2026-05-06 05:07 | -18.18713 | -150.45053 | 27375 ft | 482 kts | 48° |
| 2026-05-06 05:07 | -18.16573 | -150.42340 | 27081 ft | 481 kts | 48° |
| 2026-05-06 05:07 | -18.14443 | -150.39639 | 26820 ft | 479 kts | 48° |
| 2026-05-06 05:07 | -18.12321 | -150.36950 | 26575 ft | 477 kts | 48° |
| 2026-05-06 05:08 | -18.10198 | -150.34261 | 26320 ft | 476 kts | 48° |
| 2026-05-06 05:08 | -18.08088 | -150.31590 | 26074 ft | 474 kts | 48° |
| 2026-05-06 05:08 | -18.05987 | -150.28927 | 25825 ft | 473 kts | 49° |
| 2026-05-06 05:08 | -18.04172 | -150.26036 | 25574 ft | 475 kts | 61° |
| 2026-05-06 05:09 | -18.02937 | -150.22816 | 25190 ft | 478 kts | 73° |
| 2026-05-06 05:09 | -18.02346 | -150.19378 | 24643 ft | 478 kts | 85° |
| 2026-05-06 05:09 | -18.02416 | -150.15947 | 24101 ft | 474 kts | 97° |
| 2026-05-06 05:09 | -18.03126 | -150.12597 | 23560 ft | 468 kts | 109° |
| 2026-05-06 05:10 | -18.04429 | -150.09495 | 22827 ft | 462 kts | 121° |
| 2026-05-06 05:10 | -18.06259 | -150.06746 | 22099 ft | 456 kts | 132° |
| 2026-05-06 05:10 | -18.08520 | -150.04451 | 21390 ft | 449 kts | 143° |
| 2026-05-06 05:10 | -18.11114 | -150.02671 | 20698 ft | 442 kts | 154° |
| 2026-05-06 05:11 | -18.13935 | -150.01448 | 20023 ft | 435 kts | 165° |
| 2026-05-06 05:11 | -18.16867 | -150.00800 | 19361 ft | 428 kts | 175° |
| 2026-05-06 05:11 | -18.19813 | -150.00720 | 18709 ft | 421 kts | 186° |
| 2026-05-06 05:11 | -18.22674 | -150.01225 | 18035 ft | 413 kts | 199° |
| 2026-05-06 05:12 | -18.25249 | -150.02481 | 17397 ft | 403 kts | 214° |
| 2026-05-06 05:12 | -18.27431 | -150.04233 | 16832 ft | 391 kts | 226° |
| 2026-05-06 05:12 | -18.29184 | -150.06397 | 16121 ft | 386 kts | 238° |
| 2026-05-06 05:12 | -18.30375 | -150.09344 | 15350 ft | 379 kts | 256° |
| 2026-05-06 05:13 | -18.28569 | -150.19724 | 12528 ft | 365 kts | 305° |
| 2026-05-06 05:13 | -18.17734 | -150.24254 | 10629 ft | 323 kts | 14° |
| 2026-05-06 05:13 | -18.16298 | -150.23697 | 10340 ft | 321 kts | 23° |
| 2026-05-06 05:13 | -18.13777 | -150.22283 | 10068 ft | 302 kts | 34° |
| 2026-05-06 05:14 | -18.12675 | -150.21379 | 9997 ft | 291 kts | 42° |
| 2026-05-06 05:14 | -18.11207 | -150.19927 | 9596 ft | 292 kts | 45° |
| 2026-05-06 05:14 | -18.09737 | -150.18475 | 9225 ft | 287 kts | 43° |
| 2026-05-06 05:14 | -18.08242 | -150.17143 | 8958 ft | 283 kts | 40° |
| 2026-05-06 05:15 | -18.06733 | -150.15829 | 8708 ft | 281 kts | 41° |
| 2026-05-06 05:15 | -18.05248 | -150.14499 | 8454 ft | 279 kts | 43° |
| 2026-05-06 05:15 | -17.98878 | -150.08792 | 6705 ft | 264 kts | 43° |
| 2026-05-06 05:15 | -17.89155 | -150.00041 | 3601 ft | 252 kts | 43° |
| 2026-05-06 05:16 | -17.87842 | -149.98881 | 3554 ft | 246 kts | 43° |
| 2026-05-06 05:16 | -17.86538 | -149.97716 | 3549 ft | 247 kts | 43° |
| 2026-05-06 05:16 | -17.85215 | -149.96531 | 3559 ft | 253 kts | 43° |
| 2026-05-06 05:16 | -17.82034 | -149.93685 | 3537 ft | 251 kts | 43° |
| 2026-05-06 05:17 | -17.76692 | -149.88908 | 3536 ft | 253 kts | 43° |
| 2026-05-06 05:17 | -17.73181 | -149.85326 | 3518 ft | 253 kts | 45° |
| 2026-05-06 05:17 | -17.71749 | -149.84234 | 3533 ft | 255 kts | 41° |
| 2026-05-06 05:17 | -17.70581 | -149.82903 | 3513 ft | 239 kts | 54° |
| 2026-05-06 05:18 | -17.69643 | -149.81547 | 3552 ft | 219 kts | 56° |
| 2026-05-06 05:18 | -17.68792 | -149.80314 | 3542 ft | 198 kts | 56° |
| 2026-05-06 05:18 | -17.68009 | -149.79175 | 3525 ft | 191 kts | 56° |
| 2026-05-06 05:18 | -17.67272 | -149.78102 | 3513 ft | 187 kts | 56° |
| 2026-05-06 05:19 | -17.66491 | -149.76957 | 3409 ft | 199 kts | 56° |
| 2026-05-06 05:19 | -17.65699 | -149.75805 | 3153 ft | 192 kts | 56° |
| 2026-05-06 05:19 | -17.64922 | -149.74671 | 2906 ft | 190 kts | 56° |
| 2026-05-06 05:19 | -17.64176 | -149.73585 | 2653 ft | 175 kts | 56° |
| 2026-05-06 05:20 | -17.63488 | -149.72584 | 2426 ft | 167 kts | 57° |
| 2026-05-06 05:20 | -17.62835 | -149.71622 | 2226 ft | 154 kts | 57° |
| 2026-05-06 05:20 | -17.62230 | -149.70742 | 2039 ft | 145 kts | 57° |
| 2026-05-06 05:20 | -17.61637 | -149.69877 | 1863 ft | 148 kts | 56° |
| 2026-05-06 05:21 | -17.61033 | -149.68998 | 1700 ft | 149 kts | 56° |
| 2026-05-06 05:21 | -17.60438 | -149.68122 | 1489 ft | 148 kts | 58° |
| 2026-05-06 05:21 | -17.59856 | -149.67243 | 1260 ft | 147 kts | 57° |
| 2026-05-06 05:21 | -17.59251 | -149.66375 | 1101 ft | 148 kts | 56° |
| 2026-05-06 05:22 | -17.58633 | -149.65485 | 810 ft | 150 kts | 56° |
| 2026-05-06 05:22 | -17.58024 | -149.64581 | 663 ft | 153 kts | 55° |
| 2026-05-06 05:22 | -17.57394 | -149.63667 | 525 ft | 151 kts | 52° |
| 2026-05-06 05:22 | -17.56773 | -149.62757 | 318 ft | 155 kts | 53° |
| 2026-05-06 05:23 | -17.56152 | -149.61856 | 67 ft | 150 kts | 50° |
| 2026-05-06 05:23 | -17.55604 | -149.61080 | 14 ft | 97 kts | 53° |
| 2026-05-06 05:23 | -17.55262 | -149.60580 | 15 ft | 4 kts | 53° |
| 2026-05-06 05:24 | -17.55253 | -149.60576 | 17 ft | 4 kts | 31° |
| 2026-05-06 05:24 | -17.55238 | -149.60554 | 15 ft | 2 kts | 86° |
| 2026-05-06 05:24 | -17.55248 | -149.60547 | 15 ft | 1 kts | 148° |
| 2026-05-06 05:24 | -17.55257 | -149.60550 | 15 ft | 1 kts | 199° |
| 2026-05-06 05:25 | -17.55262 | -149.60562 | 15 ft | 4 kts | 241° |
| 2026-05-06 05:25 | -17.55294 | -149.60621 | 16 ft | 15 kts | 241° |
| 2026-05-06 05:25 | -17.55374 | -149.60741 | 17 ft | 26 kts | 234° |
| 2026-05-06 05:25 | -17.55500 | -149.60927 | 16 ft | 36 kts | 234° |
| 2026-05-06 05:26 | -17.55654 | -149.61146 | 14 ft | 35 kts | 234° |
| 2026-05-06 05:26 | -17.55690 | -149.61201 | 14 ft | 1 kts | 188° |
| 2026-05-06 05:26 | -17.55694 | -149.61199 | 14 ft | 0 kts | 167° |
| 2026-05-06 05:26 | -17.55697 | -149.61196 | 14 ft | 1 kts | 149° |
| 2026-05-06 05:27 | -17.55698 | -149.61192 | 14 ft | 1 kts | 129° |
| 2026-05-06 05:27 | -17.55698 | -149.61187 | 14 ft | 1 kts | 106° |
| 2026-05-06 05:27 | -17.55697 | -149.61178 | 14 ft | 1 kts | 82° |
| 2026-05-06 05:27 | -17.55692 | -149.61174 | 14 ft | 1 kts | 52° |
| 2026-05-06 05:28 | -17.55679 | -149.61161 | 14 ft | 5 kts | 44° |
| 2026-05-06 05:28 | -17.55659 | -149.61146 | 14 ft | 1 kts | 21° |
| 2026-05-06 05:28 | -17.55654 | -149.61147 | 14 ft | 1 kts | 356° |
| 2026-05-06 05:28 | -17.55641 | -149.61155 | 14 ft | 3 kts | 326° |
| 2026-05-06 05:29 | -17.59914 | -149.67331 | 1314 ft | 146 kts | 57° |
| 2026-05-06 05:29 | -17.56283 | -149.62043 | 120 ft | 150 kts | 51° |
| 2026-05-06 05:29 | -17.55656 | -149.61152 | 15 ft | 108 kts | 53° |
| 2026-05-06 05:29 | -17.56082 | -149.61757 | 44 ft | 150 kts | 50° |
| 2026-05-06 05:30 | -17.55260 | -149.60557 | 15 ft | 1 kts | 233° |